VTK609 UHHH-UHMM
Flight info
| Callsign | VTK609 |
|---|---|
| Flight time | 2h 15m |
| Altitude | 37000 |
| Route | TOMSU2U TOMSU N222 NA L160 BANOT BANOT5J |
| Aircraft | B738/M-SDE2E3FGHIRWXY/LB1 |
Departure
| Time | 2026-04-23 10:46 |
|---|---|
| Airport | Khabarovsk Novy Airport (UHHH) |
Arrival
| Time | 2026-04-23 13:01 |
|---|---|
| Airport | Sokol Airport (UHMM) |
| Time | Latitude | Longitude | Altitude | Speed | Heading |
|---|---|---|---|---|---|
| 2026-04-23 10:30 | 48.52527 | 135.17212 | 245 ft | 0 kts | 312° |
| 2026-04-23 10:39 | 48.52523 | 135.17219 | 217 ft | 2 kts | 311° |
| 2026-04-23 10:40 | 48.52512 | 135.17236 | 245 ft | 2 kts | 317° |
| 2026-04-23 10:40 | 48.52499 | 135.17252 | 245 ft | 2 kts | 324° |
| 2026-04-23 10:40 | 48.52485 | 135.17265 | 245 ft | 2 kts | 334° |
| 2026-04-23 10:40 | 48.52470 | 135.17274 | 245 ft | 2 kts | 350° |
| 2026-04-23 10:41 | 48.52454 | 135.17274 | 245 ft | 2 kts | 14° |
| 2026-04-23 10:41 | 48.52439 | 135.17265 | 245 ft | 2 kts | 37° |
| 2026-04-23 10:41 | 48.52433 | 135.17258 | 245 ft | 0 kts | 42° |
| 2026-04-23 10:43 | 48.52437 | 135.17263 | 245 ft | 2 kts | 42° |
| 2026-04-23 10:43 | 48.52460 | 135.17294 | 245 ft | 6 kts | 41° |
| 2026-04-23 10:43 | 48.52497 | 135.17345 | 244 ft | 8 kts | 43° |
| 2026-04-23 10:44 | 48.52504 | 135.17422 | 244 ft | 8 kts | 121° |
| 2026-04-23 10:44 | 48.52468 | 135.17486 | 244 ft | 8 kts | 132° |
| 2026-04-23 10:44 | 48.52431 | 135.17548 | 245 ft | 8 kts | 132° |
| 2026-04-23 10:44 | 48.52396 | 135.17606 | 245 ft | 7 kts | 132° |
| 2026-04-23 10:45 | 48.52361 | 135.17663 | 245 ft | 7 kts | 132° |
| 2026-04-23 10:45 | 48.52324 | 135.17726 | 245 ft | 9 kts | 132° |
| 2026-04-23 10:45 | 48.52284 | 135.17794 | 245 ft | 7 kts | 126° |
| 2026-04-23 10:45 | 48.52297 | 135.17870 | 245 ft | 11 kts | 46° |
| 2026-04-23 10:46 | 48.52478 | 135.18118 | 240 ft | 69 kts | 41° |
| 2026-04-23 10:46 | 48.53001 | 135.18831 | 248 ft | 130 kts | 42° |
| 2026-04-23 10:46 | 48.53772 | 135.19865 | 491 ft | 156 kts | 40° |
| 2026-04-23 10:46 | 48.54585 | 135.20947 | 1358 ft | 151 kts | 40° |
| 2026-04-23 10:47 | 48.55349 | 135.22001 | 2172 ft | 154 kts | 41° |
| 2026-04-23 10:47 | 48.56200 | 135.23180 | 2537 ft | 183 kts | 42° |
| 2026-04-23 10:47 | 48.57204 | 135.24582 | 2773 ft | 208 kts | 42° |
| 2026-04-23 10:47 | 48.58332 | 135.26156 | 3055 ft | 232 kts | 43° |
| 2026-04-23 10:48 | 48.59523 | 135.27821 | 3810 ft | 238 kts | 43° |
| 2026-04-23 10:48 | 48.60755 | 135.29545 | 4658 ft | 242 kts | 42° |
| 2026-04-23 10:48 | 48.61994 | 135.31278 | 5602 ft | 243 kts | 41° |
| 2026-04-23 10:48 | 48.63257 | 135.33044 | 6307 ft | 251 kts | 41° |
| 2026-04-23 10:49 | 48.64554 | 135.34857 | 7075 ft | 256 kts | 41° |
| 2026-04-23 10:49 | 48.65854 | 135.36676 | 7837 ft | 260 kts | 41° |
| 2026-04-23 10:49 | 48.67196 | 135.38557 | 8610 ft | 264 kts | 41° |
| 2026-04-23 10:49 | 48.68561 | 135.40469 | 9366 ft | 269 kts | 41° |
| 2026-04-23 10:50 | 48.69945 | 135.42411 | 10140 ft | 273 kts | 41° |
| 2026-04-23 10:50 | 48.71380 | 135.44423 | 10537 ft | 291 kts | 41° |
| 2026-04-23 10:50 | 48.72905 | 135.46563 | 10721 ft | 314 kts | 42° |
| 2026-04-23 10:50 | 48.74555 | 135.48882 | 11026 ft | 331 kts | 42° |
| 2026-04-23 10:51 | 48.76266 | 135.51293 | 11609 ft | 338 kts | 43° |
| 2026-04-23 10:51 | 48.77948 | 135.53812 | 12398 ft | 340 kts | 45° |
| 2026-04-23 10:51 | 48.79601 | 135.56410 | 13198 ft | 343 kts | 46° |
| 2026-04-23 10:51 | 48.81258 | 135.59042 | 13968 ft | 347 kts | 46° |
| 2026-04-23 10:52 | 48.82913 | 135.61669 | 14689 ft | 350 kts | 46° |
| 2026-04-23 10:52 | 48.84611 | 135.64353 | 15455 ft | 352 kts | 46° |
| 2026-04-23 10:52 | 48.86315 | 135.67037 | 16278 ft | 353 kts | 46° |
| 2026-04-23 10:52 | 48.88027 | 135.69733 | 17097 ft | 354 kts | 46° |
| 2026-04-23 10:53 | 48.89731 | 135.72414 | 17854 ft | 356 kts | 46° |
| 2026-04-23 10:53 | 48.91466 | 135.75146 | 18582 ft | 359 kts | 47° |
| 2026-04-23 10:53 | 48.93193 | 135.77867 | 19251 ft | 360 kts | 47° |
| 2026-04-23 10:53 | 48.94945 | 135.80628 | 19960 ft | 361 kts | 47° |
| 2026-04-23 10:54 | 48.96694 | 135.83389 | 20603 ft | 363 kts | 48° |
| 2026-04-23 10:54 | 48.98444 | 135.86147 | 21190 ft | 366 kts | 47° |
| 2026-04-23 10:54 | 49.00244 | 135.88913 | 21820 ft | 368 kts | 47° |
| 2026-04-23 10:54 | 49.02069 | 135.91679 | 22462 ft | 369 kts | 47° |
| 2026-04-23 10:55 | 49.03888 | 135.94428 | 23068 ft | 371 kts | 47° |
| 2026-04-23 10:55 | 49.05719 | 135.97200 | 23647 ft | 374 kts | 47° |
| 2026-04-23 10:55 | 49.07566 | 136.00005 | 24112 ft | 376 kts | 47° |
| 2026-04-23 10:55 | 49.09424 | 136.02834 | 24548 ft | 379 kts | 47° |
| 2026-04-23 10:56 | 49.11297 | 136.05692 | 24984 ft | 382 kts | 47° |
| 2026-04-23 10:56 | 49.13184 | 136.08576 | 25413 ft | 384 kts | 47° |
| 2026-04-23 10:56 | 49.15077 | 136.11474 | 25759 ft | 389 kts | 47° |
| 2026-04-23 10:56 | 49.17009 | 136.14435 | 26107 ft | 393 kts | 47° |
| 2026-04-23 10:57 | 49.18921 | 136.17370 | 26539 ft | 394 kts | 47° |
| 2026-04-23 10:57 | 49.20867 | 136.20358 | 26972 ft | 396 kts | 47° |
| 2026-04-23 10:57 | 49.22821 | 136.23364 | 27362 ft | 399 kts | 47° |
| 2026-04-23 10:57 | 49.24763 | 136.26355 | 27728 ft | 401 kts | 47° |
| 2026-04-23 10:58 | 49.26752 | 136.29422 | 28097 ft | 404 kts | 47° |
| 2026-04-23 10:58 | 49.28721 | 136.32460 | 28453 ft | 406 kts | 47° |
| 2026-04-23 10:58 | 49.30716 | 136.35544 | 28811 ft | 409 kts | 47° |
| 2026-04-23 10:58 | 49.32729 | 136.38660 | 29160 ft | 411 kts | 47° |
| 2026-04-23 10:59 | 49.34749 | 136.41791 | 29505 ft | 413 kts | 47° |
| 2026-04-23 10:59 | 49.36783 | 136.44945 | 29828 ft | 415 kts | 47° |
| 2026-04-23 10:59 | 49.38793 | 136.48067 | 30229 ft | 415 kts | 47° |
| 2026-04-23 10:59 | 49.40826 | 136.51228 | 30616 ft | 414 kts | 47° |
| 2026-04-23 11:00 | 49.42858 | 136.54390 | 30899 ft | 416 kts | 47° |
| 2026-04-23 11:00 | 49.44960 | 136.57394 | 31133 ft | 420 kts | 41° |
| 2026-04-23 11:00 | 49.47383 | 136.59980 | 31464 ft | 422 kts | 36° |
| 2026-04-23 11:00 | 49.49857 | 136.62459 | 31803 ft | 422 kts | 36° |
| 2026-04-23 11:01 | 49.52299 | 136.64910 | 32027 ft | 425 kts | 36° |
| 2026-04-23 11:01 | 49.54798 | 136.67433 | 32274 ft | 427 kts | 36° |
| 2026-04-23 11:01 | 49.57251 | 136.69923 | 32588 ft | 426 kts | 36° |
| 2026-04-23 11:01 | 49.59726 | 136.72449 | 32993 ft | 424 kts | 36° |
| 2026-04-23 11:02 | 49.61357 | 136.74118 | 33226 ft | 424 kts | 36° |
| 2026-04-23 11:02 | 49.63833 | 136.76658 | 33488 ft | 426 kts | 36° |
| 2026-04-23 11:02 | 49.66312 | 136.79207 | 33752 ft | 427 kts | 36° |
| 2026-04-23 11:02 | 49.68789 | 136.81758 | 34072 ft | 427 kts | 36° |
| 2026-04-23 11:03 | 49.71230 | 136.84274 | 34331 ft | 427 kts | 36° |
| 2026-04-23 11:03 | 49.73712 | 136.86836 | 34507 ft | 430 kts | 36° |
| 2026-04-23 11:03 | 49.76212 | 136.89419 | 34698 ft | 431 kts | 36° |
| 2026-04-23 11:03 | 49.78702 | 136.91994 | 34933 ft | 432 kts | 35° |
| 2026-04-23 11:04 | 49.81208 | 136.94590 | 35151 ft | 432 kts | 35° |
| 2026-04-23 11:04 | 49.83697 | 136.97170 | 35342 ft | 434 kts | 35° |
| 2026-04-23 11:04 | 49.86217 | 136.99787 | 35541 ft | 435 kts | 35° |
| 2026-04-23 11:04 | 49.88710 | 137.02379 | 35765 ft | 435 kts | 35° |
| 2026-04-23 11:05 | 49.91240 | 137.05012 | 35964 ft | 437 kts | 35° |
| 2026-04-23 11:05 | 49.93771 | 137.07651 | 36142 ft | 438 kts | 35° |
| 2026-04-23 11:05 | 49.96315 | 137.10307 | 36318 ft | 440 kts | 35° |
| 2026-04-23 11:05 | 49.98835 | 137.12940 | 36522 ft | 440 kts | 35° |
| 2026-04-23 11:06 | 50.03924 | 137.18268 | 36917 ft | 442 kts | 35° |
| 2026-04-23 11:06 | 50.06496 | 137.20966 | 37094 ft | 443 kts | 34° |
| 2026-04-23 11:07 | 50.11605 | 137.26351 | 37120 ft | 448 kts | 35° |
| 2026-04-23 11:07 | 50.16735 | 137.31825 | 37109 ft | 443 kts | 35° |
| 2026-04-23 11:08 | 50.21772 | 137.37218 | 37123 ft | 438 kts | 35° |
| 2026-04-23 11:08 | 50.26809 | 137.42619 | 37125 ft | 436 kts | 35° |
| 2026-04-23 11:09 | 50.31794 | 137.47977 | 37134 ft | 435 kts | 35° |
| 2026-04-23 11:09 | 50.36762 | 137.53329 | 37132 ft | 435 kts | 35° |
| 2026-04-23 11:10 | 50.41708 | 137.58877 | 37145 ft | 437 kts | 38° |
| 2026-04-23 11:10 | 50.46507 | 137.64738 | 37139 ft | 439 kts | 39° |
| 2026-04-23 11:11 | 50.51319 | 137.70645 | 37151 ft | 442 kts | 38° |
| 2026-04-23 11:11 | 50.56216 | 137.76611 | 37133 ft | 445 kts | 38° |
| 2026-04-23 11:12 | 50.61117 | 137.82567 | 37137 ft | 447 kts | 38° |
| 2026-04-23 11:12 | 50.66028 | 137.88549 | 37151 ft | 448 kts | 38° |
| 2026-04-23 11:13 | 50.70959 | 137.94571 | 37144 ft | 448 kts | 38° |
| 2026-04-23 11:13 | 50.75861 | 138.00577 | 37149 ft | 447 kts | 39° |
| 2026-04-23 11:14 | 50.80760 | 138.06595 | 37148 ft | 445 kts | 39° |
| 2026-04-23 11:14 | 50.85661 | 138.12635 | 37136 ft | 443 kts | 39° |
| 2026-04-23 11:15 | 50.90502 | 138.18613 | 37157 ft | 441 kts | 39° |
| 2026-04-23 11:15 | 50.95497 | 138.24227 | 37164 ft | 440 kts | 34° |
| 2026-04-23 11:16 | 51.00634 | 138.29445 | 37170 ft | 438 kts | 33° |
| 2026-04-23 11:16 | 51.05783 | 138.34670 | 37168 ft | 437 kts | 34° |
| 2026-04-23 11:17 | 51.10878 | 138.39915 | 37170 ft | 437 kts | 34° |
| 2026-04-23 11:17 | 51.15954 | 138.45188 | 37168 ft | 437 kts | 34° |
| 2026-04-23 11:18 | 51.21045 | 138.50499 | 37175 ft | 438 kts | 34° |
| 2026-04-23 11:18 | 51.26160 | 138.55851 | 37178 ft | 438 kts | 34° |
| 2026-04-23 11:19 | 51.31247 | 138.61185 | 37170 ft | 439 kts | 34° |
| 2026-04-23 11:19 | 51.36340 | 138.66539 | 37173 ft | 440 kts | 34° |
| 2026-04-23 11:20 | 51.41479 | 138.71957 | 37180 ft | 440 kts | 34° |
| 2026-04-23 11:20 | 51.46587 | 138.77357 | 37181 ft | 440 kts | 34° |
| 2026-04-23 11:21 | 51.51669 | 138.82744 | 37183 ft | 440 kts | 35° |
| 2026-04-23 11:21 | 51.56795 | 138.88192 | 37183 ft | 440 kts | 35° |
| 2026-04-23 11:22 | 51.61906 | 138.93639 | 37182 ft | 440 kts | 35° |
| 2026-04-23 11:22 | 51.66993 | 138.99076 | 37185 ft | 439 kts | 35° |
| 2026-04-23 11:23 | 51.72091 | 139.04538 | 37183 ft | 439 kts | 35° |
| 2026-04-23 11:23 | 51.77161 | 139.09987 | 37186 ft | 438 kts | 35° |
| 2026-04-23 11:24 | 51.82247 | 139.15468 | 37189 ft | 438 kts | 35° |
| 2026-04-23 11:24 | 51.87308 | 139.20936 | 37182 ft | 438 kts | 35° |
| 2026-04-23 11:25 | 51.92375 | 139.26426 | 37190 ft | 437 kts | 35° |
| 2026-04-23 11:25 | 51.97411 | 139.31897 | 37192 ft | 437 kts | 35° |
| 2026-04-23 11:26 | 52.02448 | 139.37385 | 37192 ft | 437 kts | 35° |
| 2026-04-23 11:26 | 52.07509 | 139.42915 | 37192 ft | 437 kts | 35° |
| 2026-04-23 11:27 | 52.12518 | 139.48403 | 37191 ft | 437 kts | 35° |
| 2026-04-23 11:27 | 52.17548 | 139.53928 | 37195 ft | 437 kts | 35° |
| 2026-04-23 11:28 | 52.22591 | 139.59484 | 37192 ft | 437 kts | 35° |
| 2026-04-23 11:28 | 52.27607 | 139.65025 | 37199 ft | 437 kts | 35° |
| 2026-04-23 11:29 | 52.32639 | 139.70600 | 37197 ft | 437 kts | 35° |
| 2026-04-23 11:29 | 52.37689 | 139.76210 | 37202 ft | 437 kts | 35° |
| 2026-04-23 11:30 | 52.42713 | 139.81807 | 37203 ft | 437 kts | 36° |
| 2026-04-23 11:30 | 52.47724 | 139.87406 | 37210 ft | 437 kts | 36° |
| 2026-04-23 11:31 | 52.52741 | 139.93028 | 37196 ft | 438 kts | 36° |
| 2026-04-23 11:31 | 52.57776 | 139.98685 | 37202 ft | 438 kts | 35° |
| 2026-04-23 11:32 | 52.62787 | 140.04329 | 37210 ft | 437 kts | 36° |
| 2026-04-23 11:32 | 52.67736 | 140.10178 | 37202 ft | 437 kts | 37° |
| 2026-04-23 11:33 | 52.72594 | 140.16155 | 37212 ft | 436 kts | 38° |
| 2026-04-23 11:33 | 52.77470 | 140.22152 | 37213 ft | 436 kts | 38° |
| 2026-04-23 11:34 | 52.82309 | 140.28087 | 37217 ft | 435 kts | 38° |
| 2026-04-23 11:34 | 52.87171 | 140.34054 | 37213 ft | 435 kts | 38° |
| 2026-04-23 11:35 | 52.92044 | 140.40051 | 37223 ft | 435 kts | 38° |
| 2026-04-23 11:35 | 52.96894 | 140.46039 | 37222 ft | 435 kts | 38° |
| 2026-04-23 11:36 | 53.01739 | 140.52039 | 37225 ft | 435 kts | 38° |
| 2026-04-23 11:36 | 53.06582 | 140.58053 | 37220 ft | 435 kts | 38° |
| 2026-04-23 11:37 | 53.11441 | 140.64103 | 37231 ft | 435 kts | 38° |
| 2026-04-23 11:37 | 53.16319 | 140.70055 | 37226 ft | 435 kts | 34° |
| 2026-04-23 11:38 | 53.21456 | 140.75377 | 37226 ft | 435 kts | 32° |
| 2026-04-23 11:38 | 53.26634 | 140.80592 | 37236 ft | 434 kts | 32° |
| 2026-04-23 11:39 | 53.31781 | 140.85848 | 37230 ft | 434 kts | 33° |
| 2026-04-23 11:39 | 53.36913 | 140.91148 | 37236 ft | 434 kts | 33° |
| 2026-04-23 11:40 | 53.42038 | 140.96468 | 37235 ft | 434 kts | 33° |
| 2026-04-23 11:40 | 53.47198 | 141.01839 | 37232 ft | 434 kts | 33° |
| 2026-04-23 11:41 | 53.52309 | 141.07174 | 37237 ft | 434 kts | 33° |
| 2026-04-23 11:41 | 53.57428 | 141.12532 | 37236 ft | 434 kts | 33° |
| 2026-04-23 11:42 | 53.62571 | 141.17929 | 37234 ft | 434 kts | 33° |
| 2026-04-23 11:42 | 53.67678 | 141.23304 | 37223 ft | 434 kts | 33° |
| 2026-04-23 11:43 | 53.72774 | 141.28688 | 37239 ft | 433 kts | 33° |
| 2026-04-23 11:43 | 53.77882 | 141.34102 | 37236 ft | 433 kts | 33° |
| 2026-04-23 11:44 | 53.82977 | 141.39519 | 37235 ft | 433 kts | 33° |
| 2026-04-23 11:44 | 53.88076 | 141.44956 | 37232 ft | 434 kts | 33° |
| 2026-04-23 11:45 | 53.93205 | 141.50440 | 37234 ft | 434 kts | 33° |
| 2026-04-23 11:45 | 53.98301 | 141.55906 | 37233 ft | 434 kts | 33° |
| 2026-04-23 11:46 | 54.03392 | 141.61382 | 37235 ft | 434 kts | 33° |
| 2026-04-23 11:46 | 54.08507 | 141.66901 | 37235 ft | 434 kts | 33° |
| 2026-04-23 11:47 | 54.13596 | 141.72407 | 37236 ft | 434 kts | 33° |
| 2026-04-23 11:47 | 54.18693 | 141.77938 | 37237 ft | 434 kts | 33° |
| 2026-04-23 11:48 | 54.23767 | 141.83461 | 37230 ft | 434 kts | 33° |
| 2026-04-23 11:48 | 54.28863 | 141.89024 | 37235 ft | 434 kts | 33° |
| 2026-04-23 11:49 | 54.33946 | 141.94590 | 37234 ft | 434 kts | 33° |
| 2026-04-23 11:49 | 54.38187 | 141.99247 | 37234 ft | 434 kts | 33° |
| 2026-04-23 11:50 | 54.43287 | 142.04862 | 37238 ft | 434 kts | 33° |
| 2026-04-23 11:50 | 54.48370 | 142.10474 | 37233 ft | 434 kts | 33° |
| 2026-04-23 11:51 | 54.53438 | 142.16087 | 37236 ft | 434 kts | 33° |
| 2026-04-23 11:51 | 54.58511 | 142.21722 | 37237 ft | 434 kts | 33° |
| 2026-04-23 11:52 | 54.63605 | 142.27398 | 37233 ft | 434 kts | 33° |
| 2026-04-23 11:52 | 54.68667 | 142.33055 | 37233 ft | 434 kts | 33° |
| 2026-04-23 11:53 | 54.73712 | 142.38712 | 37231 ft | 434 kts | 33° |
| 2026-04-23 11:53 | 54.78773 | 142.44402 | 37230 ft | 434 kts | 33° |
| 2026-04-23 11:54 | 54.83864 | 142.50143 | 37234 ft | 434 kts | 33° |
| 2026-04-23 11:54 | 54.88897 | 142.55837 | 37234 ft | 434 kts | 33° |
| 2026-04-23 11:55 | 54.93951 | 142.61572 | 37236 ft | 434 kts | 33° |
| 2026-04-23 11:55 | 54.98994 | 142.67311 | 37228 ft | 434 kts | 33° |
| 2026-04-23 11:56 | 55.04045 | 142.73077 | 37228 ft | 434 kts | 33° |
| 2026-04-23 11:56 | 55.09092 | 142.78858 | 37228 ft | 434 kts | 33° |
| 2026-04-23 11:57 | 55.14158 | 142.84678 | 37228 ft | 434 kts | 33° |
| 2026-04-23 11:57 | 55.19207 | 142.90494 | 37232 ft | 434 kts | 33° |
| 2026-04-23 11:58 | 55.24221 | 142.96315 | 37227 ft | 434 kts | 34° |
| 2026-04-23 11:58 | 55.29221 | 143.02201 | 37217 ft | 434 kts | 34° |
| 2026-04-23 11:59 | 55.34260 | 143.08160 | 37225 ft | 434 kts | 34° |
| 2026-04-23 11:59 | 55.39256 | 143.14079 | 37225 ft | 434 kts | 34° |
| 2026-04-23 12:00 | 55.44247 | 143.20006 | 37225 ft | 434 kts | 34° |
| 2026-04-23 12:00 | 55.49256 | 143.25971 | 37226 ft | 434 kts | 34° |
| 2026-04-23 12:01 | 55.54246 | 143.31934 | 37223 ft | 434 kts | 34° |
| 2026-04-23 12:01 | 55.59264 | 143.37948 | 37220 ft | 434 kts | 34° |
| 2026-04-23 12:02 | 55.64264 | 143.43960 | 37221 ft | 434 kts | 34° |
| 2026-04-23 12:02 | 55.69251 | 143.49975 | 37226 ft | 434 kts | 34° |
| 2026-04-23 12:03 | 55.74216 | 143.55982 | 37214 ft | 434 kts | 34° |
| 2026-04-23 12:03 | 55.79209 | 143.62042 | 37215 ft | 434 kts | 34° |
| 2026-04-23 12:04 | 55.84187 | 143.68102 | 37213 ft | 434 kts | 34° |
| 2026-04-23 12:04 | 55.89153 | 143.74169 | 37210 ft | 434 kts | 34° |
| 2026-04-23 12:05 | 55.94139 | 143.80278 | 37215 ft | 434 kts | 34° |
| 2026-04-23 12:05 | 55.99121 | 143.86402 | 37208 ft | 433 kts | 34° |
| 2026-04-23 12:06 | 56.04074 | 143.92509 | 37210 ft | 433 kts | 34° |
| 2026-04-23 12:06 | 56.11519 | 144.01726 | 37208 ft | 433 kts | 34° |
| 2026-04-23 12:07 | 56.16463 | 144.07873 | 37204 ft | 433 kts | 34° |
| 2026-04-23 12:07 | 56.21423 | 144.14059 | 37204 ft | 433 kts | 34° |
| 2026-04-23 12:08 | 56.26344 | 144.20214 | 37202 ft | 433 kts | 34° |
| 2026-04-23 12:08 | 56.31266 | 144.26414 | 37196 ft | 433 kts | 35° |
| 2026-04-23 12:09 | 56.36183 | 144.32748 | 37196 ft | 433 kts | 35° |
| 2026-04-23 12:09 | 56.41065 | 144.39082 | 37181 ft | 433 kts | 36° |
| 2026-04-23 12:10 | 56.45924 | 144.45397 | 37197 ft | 432 kts | 35° |
| 2026-04-23 12:10 | 56.50806 | 144.51753 | 37197 ft | 432 kts | 36° |
| 2026-04-23 12:11 | 56.55680 | 144.58116 | 37191 ft | 432 kts | 36° |
| 2026-04-23 12:11 | 56.60569 | 144.64520 | 37190 ft | 432 kts | 36° |
| 2026-04-23 12:12 | 56.65431 | 144.70908 | 37188 ft | 432 kts | 36° |
| 2026-04-23 12:12 | 56.70295 | 144.77320 | 37190 ft | 432 kts | 36° |
| 2026-04-23 12:13 | 56.75178 | 144.83779 | 37182 ft | 432 kts | 36° |
| 2026-04-23 12:13 | 56.80026 | 144.90213 | 37182 ft | 432 kts | 36° |
| 2026-04-23 12:14 | 56.84888 | 144.96686 | 37177 ft | 432 kts | 36° |
| 2026-04-23 12:14 | 56.89726 | 145.03147 | 37177 ft | 431 kts | 36° |
| 2026-04-23 12:15 | 56.94562 | 145.09628 | 37178 ft | 431 kts | 36° |
| 2026-04-23 12:15 | 56.99402 | 145.16135 | 37164 ft | 431 kts | 36° |
| 2026-04-23 12:16 | 57.04220 | 145.22634 | 37167 ft | 430 kts | 36° |
| 2026-04-23 12:16 | 57.09058 | 145.29182 | 37172 ft | 430 kts | 36° |
| 2026-04-23 12:17 | 57.13847 | 145.35686 | 37166 ft | 430 kts | 36° |
| 2026-04-23 12:17 | 57.18662 | 145.42246 | 37173 ft | 429 kts | 36° |
| 2026-04-23 12:18 | 57.23451 | 145.48792 | 37163 ft | 429 kts | 36° |
| 2026-04-23 12:18 | 57.28243 | 145.55364 | 37162 ft | 429 kts | 36° |
| 2026-04-23 12:19 | 57.33027 | 145.61947 | 37155 ft | 428 kts | 36° |
| 2026-04-23 12:19 | 57.37804 | 145.68542 | 37156 ft | 428 kts | 36° |
| 2026-04-23 12:20 | 57.42571 | 145.75144 | 37164 ft | 428 kts | 36° |
| 2026-04-23 12:20 | 57.47351 | 145.81787 | 37150 ft | 428 kts | 36° |
| 2026-04-23 12:21 | 57.52094 | 145.88402 | 37147 ft | 427 kts | 36° |
| 2026-04-23 12:21 | 57.56857 | 145.95065 | 37147 ft | 427 kts | 36° |
| 2026-04-23 12:22 | 57.61595 | 146.01717 | 37144 ft | 426 kts | 36° |
| 2026-04-23 12:22 | 57.66307 | 146.08355 | 37155 ft | 426 kts | 36° |
| 2026-04-23 12:23 | 57.71027 | 146.15023 | 37139 ft | 426 kts | 36° |
| 2026-04-23 12:23 | 57.75754 | 146.21727 | 37139 ft | 425 kts | 36° |
| 2026-04-23 12:24 | 57.80454 | 146.28414 | 37138 ft | 425 kts | 36° |
| 2026-04-23 12:24 | 57.85145 | 146.35111 | 37133 ft | 424 kts | 36° |
| 2026-04-23 12:25 | 57.89858 | 146.41862 | 37131 ft | 424 kts | 36° |
| 2026-04-23 12:25 | 57.94533 | 146.48580 | 37133 ft | 424 kts | 36° |
| 2026-04-23 12:26 | 57.99206 | 146.55318 | 37124 ft | 424 kts | 36° |
| 2026-04-23 12:26 | 58.03902 | 146.62114 | 37125 ft | 423 kts | 36° |
| 2026-04-23 12:27 | 58.08552 | 146.68864 | 37121 ft | 422 kts | 36° |
| 2026-04-23 12:27 | 58.13201 | 146.75636 | 37096 ft | 422 kts | 36° |
| 2026-04-23 12:28 | 58.17854 | 146.82436 | 37132 ft | 421 kts | 36° |
| 2026-04-23 12:28 | 58.22481 | 146.89223 | 37110 ft | 421 kts | 36° |
| 2026-04-23 12:29 | 58.27095 | 146.96013 | 37114 ft | 421 kts | 36° |
| 2026-04-23 12:29 | 58.31731 | 147.02860 | 37107 ft | 420 kts | 36° |
| 2026-04-23 12:30 | 58.36350 | 147.09704 | 37106 ft | 420 kts | 36° |
| 2026-04-23 12:30 | 58.40944 | 147.16534 | 37107 ft | 420 kts | 37° |
| 2026-04-23 12:31 | 58.45535 | 147.23383 | 37105 ft | 420 kts | 36° |
| 2026-04-23 12:31 | 58.50143 | 147.30280 | 37105 ft | 419 kts | 36° |
| 2026-04-23 12:32 | 58.54725 | 147.37163 | 37103 ft | 419 kts | 36° |
| 2026-04-23 12:32 | 58.59298 | 147.44056 | 37101 ft | 418 kts | 36° |
| 2026-04-23 12:33 | 58.63862 | 147.50959 | 37098 ft | 418 kts | 36° |
| 2026-04-23 12:33 | 58.67667 | 147.56732 | 37101 ft | 418 kts | 36° |
| 2026-04-23 12:34 | 58.69935 | 147.60179 | 36816 ft | 422 kts | 37° |
| 2026-04-23 12:34 | 58.73014 | 147.64868 | 36124 ft | 419 kts | 37° |
| 2026-04-23 12:34 | 58.74527 | 147.67178 | 35741 ft | 418 kts | 37° |
| 2026-04-23 12:34 | 58.77559 | 147.71813 | 34907 ft | 418 kts | 37° |
| 2026-04-23 12:35 | 58.79103 | 147.74173 | 34497 ft | 416 kts | 37° |
| 2026-04-23 12:35 | 58.81347 | 147.77605 | 33856 ft | 415 kts | 37° |
| 2026-04-23 12:35 | 58.83604 | 147.81064 | 33334 ft | 409 kts | 37° |
| 2026-04-23 12:35 | 58.85804 | 147.84440 | 32853 ft | 404 kts | 37° |
| 2026-04-23 12:36 | 58.88006 | 147.87826 | 32352 ft | 399 kts | 37° |
| 2026-04-23 12:36 | 58.90140 | 147.91113 | 31895 ft | 394 kts | 37° |
| 2026-04-23 12:36 | 58.92292 | 147.94433 | 31450 ft | 390 kts | 37° |
| 2026-04-23 12:36 | 58.94373 | 147.97648 | 30987 ft | 386 kts | 37° |
| 2026-04-23 12:37 | 58.96466 | 148.00888 | 30530 ft | 382 kts | 37° |
| 2026-04-23 12:37 | 58.98517 | 148.04068 | 30063 ft | 378 kts | 37° |
| 2026-04-23 12:37 | 59.00567 | 148.07250 | 29528 ft | 374 kts | 37° |
| 2026-04-23 12:37 | 59.02589 | 148.10393 | 29058 ft | 369 kts | 37° |
| 2026-04-23 12:38 | 59.05234 | 148.14513 | 28427 ft | 363 kts | 36° |
| 2026-04-23 12:38 | 59.06540 | 148.16552 | 28105 ft | 361 kts | 36° |
| 2026-04-23 12:38 | 59.08490 | 148.19607 | 27626 ft | 358 kts | 36° |
| 2026-04-23 12:38 | 59.10426 | 148.22648 | 27167 ft | 355 kts | 36° |
| 2026-04-23 12:39 | 59.12344 | 148.25666 | 26710 ft | 352 kts | 36° |
| 2026-04-23 12:39 | 59.14222 | 148.28623 | 26263 ft | 351 kts | 36° |
| 2026-04-23 12:39 | 59.16137 | 148.31643 | 25814 ft | 353 kts | 36° |
| 2026-04-23 12:39 | 59.18043 | 148.34653 | 25386 ft | 354 kts | 36° |
| 2026-04-23 12:40 | 59.19960 | 148.37685 | 24902 ft | 352 kts | 36° |
| 2026-04-23 12:40 | 59.21853 | 148.40685 | 24428 ft | 350 kts | 35° |
| 2026-04-23 12:40 | 59.23736 | 148.43675 | 23969 ft | 348 kts | 35° |
| 2026-04-23 12:40 | 59.25591 | 148.46622 | 23466 ft | 346 kts | 35° |
| 2026-04-23 12:41 | 59.27457 | 148.49590 | 22965 ft | 344 kts | 35° |
| 2026-04-23 12:41 | 59.29305 | 148.52539 | 22477 ft | 340 kts | 36° |
| 2026-04-23 12:41 | 59.31133 | 148.55456 | 22040 ft | 338 kts | 36° |
| 2026-04-23 12:41 | 59.32946 | 148.58354 | 21599 ft | 335 kts | 36° |
| 2026-04-23 12:42 | 59.34751 | 148.61240 | 21155 ft | 332 kts | 36° |
| 2026-04-23 12:42 | 59.36520 | 148.64075 | 20724 ft | 330 kts | 36° |
| 2026-04-23 12:42 | 59.38294 | 148.66921 | 20307 ft | 328 kts | 36° |
| 2026-04-23 12:42 | 59.40060 | 148.69759 | 19879 ft | 326 kts | 36° |
| 2026-04-23 12:43 | 59.41791 | 148.72544 | 19469 ft | 324 kts | 36° |
| 2026-04-23 12:43 | 59.43531 | 148.75350 | 19077 ft | 322 kts | 35° |
| 2026-04-23 12:43 | 59.45269 | 148.78155 | 18645 ft | 321 kts | 35° |
| 2026-04-23 12:43 | 59.46991 | 148.80936 | 18196 ft | 319 kts | 35° |
| 2026-04-23 12:44 | 59.48683 | 148.83673 | 17746 ft | 317 kts | 35° |
| 2026-04-23 12:44 | 59.50387 | 148.86434 | 17311 ft | 315 kts | 35° |
| 2026-04-23 12:44 | 59.52075 | 148.89172 | 16897 ft | 312 kts | 35° |
| 2026-04-23 12:44 | 59.53722 | 148.91849 | 16486 ft | 309 kts | 35° |
| 2026-04-23 12:45 | 59.55377 | 148.94541 | 16086 ft | 307 kts | 35° |
| 2026-04-23 12:45 | 59.57017 | 148.97213 | 15689 ft | 304 kts | 35° |
| 2026-04-23 12:45 | 59.58645 | 148.99866 | 15304 ft | 302 kts | 36° |
| 2026-04-23 12:45 | 59.60264 | 149.02511 | 14917 ft | 300 kts | 36° |
| 2026-04-23 12:46 | 59.61850 | 149.05103 | 14530 ft | 299 kts | 36° |
| 2026-04-23 12:46 | 59.63452 | 149.07724 | 14142 ft | 297 kts | 36° |
| 2026-04-23 12:46 | 59.65039 | 149.10326 | 13746 ft | 295 kts | 36° |
| 2026-04-23 12:46 | 59.66626 | 149.12930 | 13313 ft | 294 kts | 36° |
| 2026-04-23 12:47 | 59.68041 | 149.15808 | 12822 ft | 300 kts | 50° |
| 2026-04-23 12:47 | 59.69094 | 149.19488 | 12195 ft | 308 kts | 57° |
| 2026-04-23 12:47 | 59.70082 | 149.23253 | 11740 ft | 307 kts | 58° |
| 2026-04-23 12:47 | 59.71062 | 149.27005 | 11337 ft | 304 kts | 58° |
| 2026-04-23 12:48 | 59.72028 | 149.30686 | 10976 ft | 301 kts | 58° |
| 2026-04-23 12:48 | 59.72995 | 149.34350 | 10588 ft | 298 kts | 58° |
| 2026-04-23 12:48 | 59.73949 | 149.37957 | 10431 ft | 289 kts | 58° |
| 2026-04-23 12:48 | 59.74858 | 149.41386 | 10293 ft | 280 kts | 58° |
| 2026-04-23 12:49 | 59.75751 | 149.44754 | 10164 ft | 271 kts | 58° |
| 2026-04-23 12:49 | 59.76613 | 149.48006 | 10048 ft | 262 kts | 58° |
| 2026-04-23 12:49 | 59.77454 | 149.51173 | 9812 ft | 258 kts | 58° |
| 2026-04-23 12:49 | 59.78283 | 149.54296 | 9570 ft | 254 kts | 58° |
| 2026-04-23 12:50 | 59.79096 | 149.57375 | 9321 ft | 249 kts | 58° |
| 2026-04-23 12:50 | 59.79901 | 149.60409 | 9040 ft | 247 kts | 58° |
| 2026-04-23 12:50 | 59.80691 | 149.63406 | 8797 ft | 248 kts | 60° |
| 2026-04-23 12:50 | 59.81486 | 149.66488 | 8538 ft | 251 kts | 59° |
| 2026-04-23 12:51 | 59.82266 | 149.69578 | 8252 ft | 251 kts | 59° |
| 2026-04-23 12:51 | 59.83094 | 149.72622 | 8026 ft | 249 kts | 57° |
| 2026-04-23 12:51 | 59.83911 | 149.75670 | 7725 ft | 248 kts | 57° |
| 2026-04-23 12:51 | 59.84756 | 149.78544 | 7543 ft | 242 kts | 58° |
| 2026-04-23 12:52 | 59.85520 | 149.81546 | 7254 ft | 242 kts | 60° |
| 2026-04-23 12:52 | 59.86274 | 149.84526 | 7001 ft | 240 kts | 59° |
| 2026-04-23 12:52 | 59.87032 | 149.87480 | 6736 ft | 239 kts | 59° |
| 2026-04-23 12:52 | 59.87783 | 149.90389 | 6467 ft | 238 kts | 59° |
| 2026-04-23 12:53 | 59.88544 | 149.93326 | 6192 ft | 237 kts | 59° |
| 2026-04-23 12:53 | 59.89302 | 149.96246 | 5906 ft | 237 kts | 59° |
| 2026-04-23 12:53 | 59.90056 | 149.99149 | 5635 ft | 236 kts | 60° |
| 2026-04-23 12:53 | 59.90808 | 150.02048 | 5380 ft | 235 kts | 60° |
| 2026-04-23 12:54 | 59.91541 | 150.04880 | 5218 ft | 229 kts | 60° |
| 2026-04-23 12:54 | 59.92262 | 150.07675 | 5103 ft | 222 kts | 61° |
| 2026-04-23 12:54 | 59.92603 | 150.10638 | 4989 ft | 220 kts | 88° |
| 2026-04-23 12:54 | 59.92520 | 150.13631 | 4911 ft | 212 kts | 88° |
| 2026-04-23 12:55 | 59.92458 | 150.16461 | 4844 ft | 201 kts | 88° |
| 2026-04-23 12:55 | 59.92398 | 150.19162 | 4735 ft | 189 kts | 88° |
| 2026-04-23 12:55 | 59.92340 | 150.21707 | 4593 ft | 179 kts | 88° |
| 2026-04-23 12:55 | 59.92284 | 150.24159 | 4439 ft | 176 kts | 88° |
| 2026-04-23 12:56 | 59.92228 | 150.26624 | 4257 ft | 179 kts | 88° |
| 2026-04-23 12:56 | 59.92172 | 150.29107 | 4070 ft | 182 kts | 88° |
| 2026-04-23 12:56 | 59.92142 | 150.31620 | 3865 ft | 180 kts | 85° |
| 2026-04-23 12:56 | 59.92137 | 150.34104 | 3679 ft | 177 kts | 86° |
| 2026-04-23 12:57 | 59.92092 | 150.36490 | 3467 ft | 167 kts | 88° |
| 2026-04-23 12:57 | 59.92033 | 150.38719 | 3308 ft | 156 kts | 88° |
| 2026-04-23 12:57 | 59.91973 | 150.40869 | 3150 ft | 156 kts | 88° |
| 2026-04-23 12:57 | 59.91910 | 150.43054 | 2993 ft | 158 kts | 89° |
| 2026-04-23 12:58 | 59.91847 | 150.45233 | 2862 ft | 156 kts | 89° |
| 2026-04-23 12:58 | 59.91785 | 150.47342 | 2803 ft | 150 kts | 89° |
| 2026-04-23 12:58 | 59.91726 | 150.49353 | 2619 ft | 140 kts | 89° |
| 2026-04-23 12:58 | 59.91671 | 150.51277 | 2421 ft | 138 kts | 88° |
| 2026-04-23 12:59 | 59.91609 | 150.53164 | 2206 ft | 139 kts | 91° |
| 2026-04-23 12:59 | 59.91527 | 150.55092 | 2023 ft | 138 kts | 91° |
| 2026-04-23 12:59 | 59.91482 | 150.56993 | 1873 ft | 138 kts | 90° |
| 2026-04-23 12:59 | 59.91475 | 150.58933 | 1628 ft | 141 kts | 91° |
| 2026-04-23 13:00 | 59.91429 | 150.60872 | 1476 ft | 138 kts | 98° |
| 2026-04-23 13:00 | 59.91351 | 150.62797 | 1261 ft | 141 kts | 96° |
| 2026-04-23 13:00 | 59.91297 | 150.64719 | 1047 ft | 139 kts | 94° |
| 2026-04-23 13:00 | 59.91248 | 150.66614 | 836 ft | 136 kts | 92° |
| 2026-04-23 13:01 | 59.91195 | 150.68486 | 664 ft | 133 kts | 92° |
| 2026-04-23 13:01 | 59.91140 | 150.70293 | 581 ft | 124 kts | 92° |
| 2026-04-23 13:01 | 59.91109 | 150.71642 | 582 ft | 67 kts | 92° |
| 2026-04-23 13:01 | 59.91092 | 150.72239 | 580 ft | 28 kts | 94° |
| 2026-04-23 13:02 | 59.91086 | 150.72461 | 581 ft | 9 kts | 93° |
| 2026-04-23 13:02 | 59.91082 | 150.72585 | 583 ft | 6 kts | 92° |
| 2026-04-23 13:02 | 59.91095 | 150.72659 | 583 ft | 6 kts | 39° |
| 2026-04-23 13:02 | 59.91138 | 150.72676 | 583 ft | 7 kts | 5° |
| 2026-04-23 13:03 | 59.91194 | 150.72684 | 582 ft | 8 kts | 2° |
| 2026-04-23 13:03 | 59.91245 | 150.72688 | 582 ft | 5 kts | 2° |
| 2026-04-23 13:03 | 59.91281 | 150.72676 | 582 ft | 5 kts | 330° |
| 2026-04-23 13:03 | 59.91298 | 150.72606 | 582 ft | 7 kts | 276° |
| 2026-04-23 13:04 | 59.91302 | 150.72470 | 582 ft | 11 kts | 272° |
| 2026-04-23 13:04 | 59.91306 | 150.72318 | 582 ft | 10 kts | 273° |
| 2026-04-23 13:04 | 59.91309 | 150.72211 | 582 ft | 6 kts | 272° |
| 2026-04-23 13:04 | 59.91317 | 150.72152 | 582 ft | 4 kts | 313° |
| 2026-04-23 13:05 | 59.91347 | 150.72137 | 582 ft | 4 kts | 359° |
| 2026-04-23 13:05 | 59.91371 | 150.72139 | 582 ft | 2 kts | 2° |
| 2026-04-23 13:05 | 59.91375 | 150.72140 | 582 ft | 0 kts | 2° |